sensor_id;sensor_type;location;lat;lon;timestamp;temperature;humidity
57843;DHT22;43673;51.058;3.734;2023-05-10T00:02:07;14.50;99.90
57843;DHT22;43673;51.058;3.734;2023-05-10T00:04:33;14.50;99.90
57843;DHT22;43673;51.058;3.734;2023-05-10T00:06:58;14.50;99.90
57843;DHT22;43673;51.058;3.734;2023-05-10T00:09:24;14.50;99.90
57843;DHT22;43673;51.058;3.734;2023-05-10T00:11:50;14.60;99.90
57843;DHT22;43673;51.058;3.734;2023-05-10T00:14:16;14.60;99.90
57843;DHT22;43673;51.058;3.734;2023-05-10T00:16:41;14.60;99.90
57843;DHT22;43673;51.058;3.734;2023-05-10T00:19:07;14.60;99.90
57843;DHT22;43673;51.058;3.734;2023-05-10T00:21:33;14.60;99.90
57843;DHT22;43673;51.058;3.734;2023-05-10T00:23:59;14.70;99.90
57843;DHT22;43673;51.058;3.734;2023-05-10T00:26:25;14.70;99.90
57843;DHT22;43673;51.058;3.734;2023-05-10T00:28:50;14.80;99.90
57843;DHT22;43673;51.058;3.734;2023-05-10T00:31:16;14.70;99.90
57843;DHT22;43673;51.058;3.734;2023-05-10T00:33:42;14.70;99.90
57843;DHT22;43673;51.058;3.734;2023-05-10T00:36:08;14.70;99.90
57843;DHT22;43673;51.058;3.734;2023-05-10T00:38:34;14.80;99.90
57843;DHT22;43673;51.058;3.734;2023-05-10T00:40:59;14.70;99.90
57843;DHT22;43673;51.058;3.734;2023-05-10T00:43:25;14.80;99.90
57843;DHT22;43673;51.058;3.734;2023-05-10T00:45:51;14.80;99.90
57843;DHT22;43673;51.058;3.734;2023-05-10T00:48:18;14.80;99.90
57843;DHT22;43673;51.058;3.734;2023-05-10T00:50:44;14.80;99.90
57843;DHT22;43673;51.058;3.734;2023-05-10T00:53:10;14.90;99.90
57843;DHT22;43673;51.058;3.734;2023-05-10T00:55:36;14.80;99.90
57843;DHT22;43673;51.058;3.734;2023-05-10T00:58:03;14.80;99.90
57843;DHT22;43673;51.058;3.734;2023-05-10T01:00:29;14.80;99.90
57843;DHT22;43673;51.058;3.734;2023-05-10T01:02:55;14.80;99.90
57843;DHT22;43673;51.058;3.734;2023-05-10T01:05:24;14.70;99.90
57843;DHT22;43673;51.058;3.734;2023-05-10T01:08:09;14.70;99.90
57843;DHT22;43673;51.058;3.734;2023-05-10T01:10:57;14.60;99.90
57843;DHT22;43673;51.058;3.734;2023-05-10T01:14:30;14.60;99.90
57843;DHT22;43673;51.058;3.734;2023-05-10T01:16:57;14.60;99.90
57843;DHT22;43673;51.058;3.734;2023-05-10T01:19:28;14.60;99.90
57843;DHT22;43673;51.058;3.734;2023-05-10T01:37:15;14.40;99.90
57843;DHT22;43673;51.058;3.734;2023-05-10T01:42:46;14.50;99.90
57843;DHT22;43673;51.058;3.734;2023-05-10T01:50:51;14.50;99.90
57843;DHT22;43673;51.058;3.734;2023-05-10T02:04:08;14.40;99.90
57843;DHT22;43673;51.058;3.734;2023-05-10T02:06:35;14.40;99.90
57843;DHT22;43673;51.058;3.734;2023-05-10T02:09:02;14.40;99.90
57843;DHT22;43673;51.058;3.734;2023-05-10T02:11:29;14.40;99.90
57843;DHT22;43673;51.058;3.734;2023-05-10T02:14:05;14.40;99.90
57843;DHT22;43673;51.058;3.734;2023-05-10T02:16:33;14.50;99.90
57843;DHT22;43673;51.058;3.734;2023-05-10T02:19:01;14.50;99.90
57843;DHT22;43673;51.058;3.734;2023-05-10T02:21:28;14.30;99.90
57843;DHT22;43673;51.058;3.734;2023-05-10T02:23:56;14.50;99.90
57843;DHT22;43673;51.058;3.734;2023-05-10T02:26:23;14.50;99.90
57843;DHT22;43673;51.058;3.734;2023-05-10T02:28:51;14.60;99.90
57843;DHT22;43673;51.058;3.734;2023-05-10T02:31:18;14.60;99.90
57843;DHT22;43673;51.058;3.734;2023-05-10T02:33:44;14.60;99.90
57843;DHT22;43673;51.058;3.734;2023-05-10T02:36:12;14.60;99.90
57843;DHT22;43673;51.058;3.734;2023-05-10T02:38:39;14.60;99.90
57843;DHT22;43673;51.058;3.734;2023-05-10T02:41:08;14.60;99.90
57843;DHT22;43673;51.058;3.734;2023-05-10T02:43:34;14.50;99.90
57843;DHT22;43673;51.058;3.734;2023-05-10T02:46:01;14.50;99.90
57843;DHT22;43673;51.058;3.734;2023-05-10T02:48:27;14.50;99.90
57843;DHT22;43673;51.058;3.734;2023-05-10T02:50:55;14.50;99.90
57843;DHT22;43673;51.058;3.734;2023-05-10T02:53:31;14.50;99.90
57843;DHT22;43673;51.058;3.734;2023-05-10T02:56:05;14.50;99.90
57843;DHT22;43673;51.058;3.734;2023-05-10T02:58:32;14.50;99.90
57843;DHT22;43673;51.058;3.734;2023-05-10T03:00:59;14.60;99.90
57843;DHT22;43673;51.058;3.734;2023-05-10T03:03:25;14.50;99.90
57843;DHT22;43673;51.058;3.734;2023-05-10T03:05:51;14.60;99.90
57843;DHT22;43673;51.058;3.734;2023-05-10T03:08:21;14.60;99.90
57843;DHT22;43673;51.058;3.734;2023-05-10T03:13:33;14.70;99.90
57843;DHT22;43673;51.058;3.734;2023-05-10T03:16:20;14.70;99.90
57843;DHT22;43673;51.058;3.734;2023-05-10T03:19:06;14.80;99.90
57843;DHT22;43673;51.058;3.734;2023-05-10T03:21:32;14.70;99.90
57843;DHT22;43673;51.058;3.734;2023-05-10T03:24:06;14.70;99.90
57843;DHT22;43673;51.058;3.734;2023-05-10T03:26:33;14.70;99.90
57843;DHT22;43673;51.058;3.734;2023-05-10T03:29:00;14.70;99.90
57843;DHT22;43673;51.058;3.734;2023-05-10T03:31:26;14.70;99.90
57843;DHT22;43673;51.058;3.734;2023-05-10T03:33:52;14.70;99.90
57843;DHT22;43673;51.058;3.734;2023-05-10T03:36:18;14.80;99.90
57843;DHT22;43673;51.058;3.734;2023-05-10T03:38:44;14.80;99.90
57843;DHT22;43673;51.058;3.734;2023-05-10T03:41:10;14.80;99.90
57843;DHT22;43673;51.058;3.734;2023-05-10T03:43:36;14.80;99.90
57843;DHT22;43673;51.058;3.734;2023-05-10T03:46:05;14.80;99.90
57843;DHT22;43673;51.058;3.734;2023-05-10T03:48:34;14.70;99.90
57843;DHT22;43673;51.058;3.734;2023-05-10T03:51:00;14.80;99.90
57843;DHT22;43673;51.058;3.734;2023-05-10T03:53:26;14.80;99.90
57843;DHT22;43673;51.058;3.734;2023-05-10T03:55:52;14.70;99.90
57843;DHT22;43673;51.058;3.734;2023-05-10T03:58:18;14.70;99.90
57843;DHT22;43673;51.058;3.734;2023-05-10T04:00:44;14.70;99.90
57843;DHT22;43673;51.058;3.734;2023-05-10T04:03:11;14.80;99.90
57843;DHT22;43673;51.058;3.734;2023-05-10T04:05:37;14.80;99.90
57843;DHT22;43673;51.058;3.734;2023-05-10T04:08:03;14.80;99.90
57843;DHT22;43673;51.058;3.734;2023-05-10T04:10:29;14.90;99.90
57843;DHT22;43673;51.058;3.734;2023-05-10T04:12:55;14.90;99.90
57843;DHT22;43673;51.058;3.734;2023-05-10T04:15:21;14.90;99.90
57843;DHT22;43673;51.058;3.734;2023-05-10T04:17:47;14.90;99.90
57843;DHT22;43673;51.058;3.734;2023-05-10T04:20:13;14.90;99.90
57843;DHT22;43673;51.058;3.734;2023-05-10T04:22:38;14.90;99.90
57843;DHT22;43673;51.058;3.734;2023-05-10T04:25:05;15.00;99.90
57843;DHT22;43673;51.058;3.734;2023-05-10T04:27:31;15.10;99.90
57843;DHT22;43673;51.058;3.734;2023-05-10T04:29:57;15.10;99.90
57843;DHT22;43673;51.058;3.734;2023-05-10T04:32:23;15.10;99.90
57843;DHT22;43673;51.058;3.734;2023-05-10T04:34:48;15.00;99.90
57843;DHT22;43673;51.058;3.734;2023-05-10T04:37:14;15.00;99.90
57843;DHT22;43673;51.058;3.734;2023-05-10T04:39:40;15.10;99.90
57843;DHT22;43673;51.058;3.734;2023-05-10T04:42:06;15.10;99.90
57843;DHT22;43673;51.058;3.734;2023-05-10T04:44:32;15.10;99.90
57843;DHT22;43673;51.058;3.734;2023-05-10T04:46:58;15.20;99.90
57843;DHT22;43673;51.058;3.734;2023-05-10T04:49:24;15.30;99.90
57843;DHT22;43673;51.058;3.734;2023-05-10T04:51:49;15.30;99.90
57843;DHT22;43673;51.058;3.734;2023-05-10T04:54:15;15.30;99.90
57843;DHT22;43673;51.058;3.734;2023-05-10T04:56:41;15.30;99.90
57843;DHT22;43673;51.058;3.734;2023-05-10T04:59:07;15.30;99.90
57843;DHT22;43673;51.058;3.734;2023-05-10T05:01:33;15.30;99.90
57843;DHT22;43673;51.058;3.734;2023-05-10T05:03:58;15.30;99.90
57843;DHT22;43673;51.058;3.734;2023-05-10T05:06:24;15.30;99.90
57843;DHT22;43673;51.058;3.734;2023-05-10T05:08:51;15.30;99.90
57843;DHT22;43673;51.058;3.734;2023-05-10T05:11:17;15.40;99.90
57843;DHT22;43673;51.058;3.734;2023-05-10T05:13:43;15.30;99.90
57843;DHT22;43673;51.058;3.734;2023-05-10T05:16:09;15.30;99.90
57843;DHT22;43673;51.058;3.734;2023-05-10T05:18:35;15.30;99.90
57843;DHT22;43673;51.058;3.734;2023-05-10T05:21:01;15.40;99.90
57843;DHT22;43673;51.058;3.734;2023-05-10T05:23:26;15.40;99.90
57843;DHT22;43673;51.058;3.734;2023-05-10T05:25:53;15.50;99.90
57843;DHT22;43673;51.058;3.734;2023-05-10T05:28:21;15.50;99.90
57843;DHT22;43673;51.058;3.734;2023-05-10T05:30:47;15.50;99.90
57843;DHT22;43673;51.058;3.734;2023-05-10T05:33:14;15.50;99.90
57843;DHT22;43673;51.058;3.734;2023-05-10T05:35:41;15.60;99.90
57843;DHT22;43673;51.058;3.734;2023-05-10T05:38:08;15.60;99.90
57843;DHT22;43673;51.058;3.734;2023-05-10T05:40:34;15.60;99.90
57843;DHT22;43673;51.058;3.734;2023-05-10T05:42:59;15.70;99.90
57843;DHT22;43673;51.058;3.734;2023-05-10T05:45:25;15.70;99.90
57843;DHT22;43673;51.058;3.734;2023-05-10T05:47:51;15.70;99.90
57843;DHT22;43673;51.058;3.734;2023-05-10T05:50:16;15.80;99.90
57843;DHT22;43673;51.058;3.734;2023-05-10T05:52:42;15.70;99.90
57843;DHT22;43673;51.058;3.734;2023-05-10T05:55:08;15.70;99.90
57843;DHT22;43673;51.058;3.734;2023-05-10T05:57:34;15.70;99.90
57843;DHT22;43673;51.058;3.734;2023-05-10T05:59:59;15.80;99.90
57843;DHT22;43673;51.058;3.734;2023-05-10T06:02:25;15.90;99.90
57843;DHT22;43673;51.058;3.734;2023-05-10T06:04:51;16.10;99.90
57843;DHT22;43673;51.058;3.734;2023-05-10T06:07:17;16.30;99.90
57843;DHT22;43673;51.058;3.734;2023-05-10T06:09:42;16.40;99.90
57843;DHT22;43673;51.058;3.734;2023-05-10T06:12:08;16.50;99.90
57843;DHT22;43673;51.058;3.734;2023-05-10T06:14:34;16.60;99.90
57843;DHT22;43673;51.058;3.734;2023-05-10T06:16:59;16.70;99.90
57843;DHT22;43673;51.058;3.734;2023-05-10T06:19:25;16.70;99.90
57843;DHT22;43673;51.058;3.734;2023-05-10T06:21:51;16.80;99.90
57843;DHT22;43673;51.058;3.734;2023-05-10T06:24:17;16.80;99.90
57843;DHT22;43673;51.058;3.734;2023-05-10T06:26:43;16.70;99.90
57843;DHT22;43673;51.058;3.734;2023-05-10T06:29:08;16.70;99.90
57843;DHT22;43673;51.058;3.734;2023-05-10T06:31:34;16.60;99.90
57843;DHT22;43673;51.058;3.734;2023-05-10T06:34:00;16.50;99.90
57843;DHT22;43673;51.058;3.734;2023-05-10T06:36:25;16.60;99.90
57843;DHT22;43673;51.058;3.734;2023-05-10T06:38:52;16.60;99.90
57843;DHT22;43673;51.058;3.734;2023-05-10T06:41:18;16.80;99.90
57843;DHT22;43673;51.058;3.734;2023-05-10T06:43:44;16.80;99.90
57843;DHT22;43673;51.058;3.734;2023-05-10T06:46:10;17.10;99.90
57843;DHT22;43673;51.058;3.734;2023-05-10T06:48:36;17.20;99.90
57843;DHT22;43673;51.058;3.734;2023-05-10T06:51:01;17.40;99.90
57843;DHT22;43673;51.058;3.734;2023-05-10T06:53:27;17.80;99.90
57843;DHT22;43673;51.058;3.734;2023-05-10T06:55:53;18.70;99.90
57843;DHT22;43673;51.058;3.734;2023-05-10T06:58:18;19.40;99.90
57843;DHT22;43673;51.058;3.734;2023-05-10T07:00:44;19.70;99.90
57843;DHT22;43673;51.058;3.734;2023-05-10T07:03:10;20.00;99.90
57843;DHT22;43673;51.058;3.734;2023-05-10T07:05:36;20.00;99.90
57843;DHT22;43673;51.058;3.734;2023-05-10T07:08:07;19.90;99.90
57843;DHT22;43673;51.058;3.734;2023-05-10T07:10:35;19.70;99.90
57843;DHT22;43673;51.058;3.734;2023-05-10T07:13:01;19.70;99.90
57843;DHT22;43673;51.058;3.734;2023-05-10T07:15:27;19.80;99.90
57843;DHT22;43673;51.058;3.734;2023-05-10T07:17:53;19.60;99.90
57843;DHT22;43673;51.058;3.734;2023-05-10T07:20:19;19.40;99.90
57843;DHT22;43673;51.058;3.734;2023-05-10T07:22:44;19.10;99.90
57843;DHT22;43673;51.058;3.734;2023-05-10T07:25:10;18.60;99.90
57843;DHT22;43673;51.058;3.734;2023-05-10T07:27:36;18.40;99.90
57843;DHT22;43673;51.058;3.734;2023-05-10T07:30:01;18.20;99.90
57843;DHT22;43673;51.058;3.734;2023-05-10T07:32:28;17.90;99.90
57843;DHT22;43673;51.058;3.734;2023-05-10T07:34:53;17.70;99.90
57843;DHT22;43673;51.058;3.734;2023-05-10T07:37:19;17.40;99.90
57843;DHT22;43673;51.058;3.734;2023-05-10T07:39:45;17.20;99.90
57843;DHT22;43673;51.058;3.734;2023-05-10T07:42:11;17.10;99.90
57843;DHT22;43673;51.058;3.734;2023-05-10T07:44:36;17.00;99.90
57843;DHT22;43673;51.058;3.734;2023-05-10T07:47:02;17.00;99.90
57843;DHT22;43673;51.058;3.734;2023-05-10T07:49:28;17.00;99.90
57843;DHT22;43673;51.058;3.734;2023-05-10T07:51:53;16.90;99.90
57843;DHT22;43673;51.058;3.734;2023-05-10T07:54:19;16.90;99.90
57843;DHT22;43673;51.058;3.734;2023-05-10T07:56:45;16.80;99.90
57843;DHT22;43673;51.058;3.734;2023-05-10T07:59:18;16.70;99.90
57843;DHT22;43673;51.058;3.734;2023-05-10T08:01:44;16.70;99.90
57843;DHT22;43673;51.058;3.734;2023-05-10T08:04:10;16.70;99.90
57843;DHT22;43673;51.058;3.734;2023-05-10T08:06:36;16.70;99.90
57843;DHT22;43673;51.058;3.734;2023-05-10T08:09:02;16.80;99.90
57843;DHT22;43673;51.058;3.734;2023-05-10T08:11:28;17.00;99.90
57843;DHT22;43673;51.058;3.734;2023-05-10T08:13:54;17.30;99.90
57843;DHT22;43673;51.058;3.734;2023-05-10T08:16:20;17.40;99.90
57843;DHT22;43673;51.058;3.734;2023-05-10T08:18:46;17.60;99.90
57843;DHT22;43673;51.058;3.734;2023-05-10T08:21:13;17.70;99.90
57843;DHT22;43673;51.058;3.734;2023-05-10T08:23:39;17.70;99.90
57843;DHT22;43673;51.058;3.734;2023-05-10T08:26:06;17.80;99.90
57843;DHT22;43673;51.058;3.734;2023-05-10T08:28:32;17.90;99.90
57843;DHT22;43673;51.058;3.734;2023-05-10T08:30:57;17.90;99.90
57843;DHT22;43673;51.058;3.734;2023-05-10T08:33:23;17.80;99.90
57843;DHT22;43673;51.058;3.734;2023-05-10T08:35:49;17.60;99.90
57843;DHT22;43673;51.058;3.734;2023-05-10T08:38:14;17.40;99.90
57843;DHT22;43673;51.058;3.734;2023-05-10T08:40:44;17.20;99.90
57843;DHT22;43673;51.058;3.734;2023-05-10T08:43:12;17.10;99.90
57843;DHT22;43673;51.058;3.734;2023-05-10T08:45:42;17.00;99.90
57843;DHT22;43673;51.058;3.734;2023-05-10T08:48:11;16.90;99.90
57843;DHT22;43673;51.058;3.734;2023-05-10T08:50:39;16.90;99.90
57843;DHT22;43673;51.058;3.734;2023-05-10T08:53:12;16.80;99.90
57843;DHT22;43673;51.058;3.734;2023-05-10T08:55:39;16.90;99.90
57843;DHT22;43673;51.058;3.734;2023-05-10T08:58:08;16.90;99.90
57843;DHT22;43673;51.058;3.734;2023-05-10T09:00:34;16.90;99.90
57843;DHT22;43673;51.058;3.734;2023-05-10T09:03:03;16.70;99.90
57843;DHT22;43673;51.058;3.734;2023-05-10T09:05:29;16.50;99.90
57843;DHT22;43673;51.058;3.734;2023-05-10T09:07:55;16.30;99.90
57843;DHT22;43673;51.058;3.734;2023-05-10T09:10:21;16.20;99.90
57843;DHT22;43673;51.058;3.734;2023-05-10T09:12:48;16.10;99.90
57843;DHT22;43673;51.058;3.734;2023-05-10T09:15:15;16.00;99.90
57843;DHT22;43673;51.058;3.734;2023-05-10T09:17:42;15.90;99.90
57843;DHT22;43673;51.058;3.734;2023-05-10T09:20:09;16.00;99.90
57843;DHT22;43673;51.058;3.734;2023-05-10T09:22:35;16.00;99.90
57843;DHT22;43673;51.058;3.734;2023-05-10T09:25:12;16.20;99.90
57843;DHT22;43673;51.058;3.734;2023-05-10T09:27:40;16.40;99.90
57843;DHT22;43673;51.058;3.734;2023-05-10T09:30:06;16.50;99.90
57843;DHT22;43673;51.058;3.734;2023-05-10T09:32:41;16.60;99.90
57843;DHT22;43673;51.058;3.734;2023-05-10T09:35:11;16.90;99.90
57843;DHT22;43673;51.058;3.734;2023-05-10T09:37:45;17.20;99.90
57843;DHT22;43673;51.058;3.734;2023-05-10T09:40:19;17.70;99.90
57843;DHT22;43673;51.058;3.734;2023-05-10T09:42:55;18.30;99.90
57843;DHT22;43673;51.058;3.734;2023-05-10T09:45:22;19.00;99.90
57843;DHT22;43673;51.058;3.734;2023-05-10T09:47:50;19.70;99.90
57843;DHT22;43673;51.058;3.734;2023-05-10T09:50:17;20.30;99.90
57843;DHT22;43673;51.058;3.734;2023-05-10T09:52:48;21.00;99.90
57843;DHT22;43673;51.058;3.734;2023-05-10T09:55:15;21.70;99.90
57843;DHT22;43673;51.058;3.734;2023-05-10T09:57:40;22.40;99.90
57843;DHT22;43673;51.058;3.734;2023-05-10T10:00:08;23.30;99.90
57843;DHT22;43673;51.058;3.734;2023-05-10T10:02:38;24.10;99.90
57843;DHT22;43673;51.058;3.734;2023-05-10T10:05:06;24.90;99.90
57843;DHT22;43673;51.058;3.734;2023-05-10T10:07:32;25.20;99.90
57843;DHT22;43673;51.058;3.734;2023-05-10T10:09:59;24.80;99.90
57843;DHT22;43673;51.058;3.734;2023-05-10T10:12:28;24.50;99.90
57843;DHT22;43673;51.058;3.734;2023-05-10T10:17:33;24.10;99.90
57843;DHT22;43673;51.058;3.734;2023-05-10T10:20:02;24.80;99.90
57843;DHT22;43673;51.058;3.734;2023-05-10T10:22:29;25.10;99.90
57843;DHT22;43673;51.058;3.734;2023-05-10T10:24:55;25.90;99.90
57843;DHT22;43673;51.058;3.734;2023-05-10T10:35:32;28.10;98.50
57843;DHT22;43673;51.058;3.734;2023-05-10T10:37:58;27.80;97.70
57843;DHT22;43673;51.058;3.734;2023-05-10T10:40:30;27.50;97.10
57843;DHT22;43673;51.058;3.734;2023-05-10T10:42:56;27.20;97.30
57843;DHT22;43673;51.058;3.734;2023-05-10T10:45:24;26.40;96.90
57843;DHT22;43673;51.058;3.734;2023-05-10T10:48:22;25.40;98.20
57843;DHT22;43673;51.058;3.734;2023-05-10T10:50:56;24.60;99.90
57843;DHT22;43673;51.058;3.734;2023-05-10T10:53:26;23.90;99.90
57843;DHT22;43673;51.058;3.734;2023-05-10T10:56:12;23.30;99.90
57843;DHT22;43673;51.058;3.734;2023-05-10T10:58:48;22.60;99.90
57843;DHT22;43673;51.058;3.734;2023-05-10T11:01:18;22.00;99.90
57843;DHT22;43673;51.058;3.734;2023-05-10T11:06:35;20.80;99.90
57843;DHT22;43673;51.058;3.734;2023-05-10T11:09:14;20.50;99.90
57843;DHT22;43673;51.058;3.734;2023-05-10T11:11:53;20.30;99.90
57843;DHT22;43673;51.058;3.734;2023-05-10T11:14:29;20.20;99.90
57843;DHT22;43673;51.058;3.734;2023-05-10T11:17:27;20.40;99.90
57843;DHT22;43673;51.058;3.734;2023-05-10T11:20:17;20.40;99.90
57843;DHT22;43673;51.058;3.734;2023-05-10T11:22:54;20.20;99.90
57843;DHT22;43673;51.058;3.734;2023-05-10T11:25:25;20.00;99.90
57843;DHT22;43673;51.058;3.734;2023-05-10T11:27:51;19.50;99.90
57843;DHT22;43673;51.058;3.734;2023-05-10T11:30:17;19.30;99.90
57843;DHT22;43673;51.058;3.734;2023-05-10T11:32:43;19.20;99.90
57843;DHT22;43673;51.058;3.734;2023-05-10T11:35:14;18.90;99.90
57843;DHT22;43673;51.058;3.734;2023-05-10T11:37:41;18.80;99.90
57843;DHT22;43673;51.058;3.734;2023-05-10T11:40:10;18.70;99.90
57843;DHT22;43673;51.058;3.734;2023-05-10T11:42:37;18.60;99.90
57843;DHT22;43673;51.058;3.734;2023-05-10T11:45:03;18.60;99.90
57843;DHT22;43673;51.058;3.734;2023-05-10T11:47:29;18.70;99.90
57843;DHT22;43673;51.058;3.734;2023-05-10T11:49:55;18.70;99.90
57843;DHT22;43673;51.058;3.734;2023-05-10T11:52:20;18.80;99.90
57843;DHT22;43673;51.058;3.734;2023-05-10T11:54:55;19.10;99.90
57843;DHT22;43673;51.058;3.734;2023-05-10T11:57:26;19.30;99.90
57843;DHT22;43673;51.058;3.734;2023-05-10T11:59:57;19.80;99.90
57843;DHT22;43673;51.058;3.734;2023-05-10T12:02:23;20.30;99.90
57843;DHT22;43673;51.058;3.734;2023-05-10T12:04:55;20.80;99.90
57843;DHT22;43673;51.058;3.734;2023-05-10T12:07:26;21.20;99.90
57843;DHT22;43673;51.058;3.734;2023-05-10T12:12:52;21.20;99.90
57843;DHT22;43673;51.058;3.734;2023-05-10T12:15:21;21.40;99.90
57843;DHT22;43673;51.058;3.734;2023-05-10T12:25:35;21.50;99.90
57843;DHT22;43673;51.058;3.734;2023-05-10T12:28:07;21.50;99.90
57843;DHT22;43673;51.058;3.734;2023-05-10T12:30:34;21.20;99.90
57843;DHT22;43673;51.058;3.734;2023-05-10T12:33:13;21.40;99.90
57843;DHT22;43673;51.058;3.734;2023-05-10T12:35:52;21.40;99.90
57843;DHT22;43673;51.058;3.734;2023-05-10T12:41:07;21.00;99.90
57843;DHT22;43673;51.058;3.734;2023-05-10T12:43:33;20.60;99.90
57843;DHT22;43673;51.058;3.734;2023-05-10T12:48:36;20.30;99.90
57843;DHT22;43673;51.058;3.734;2023-05-10T12:51:03;20.10;99.90
57843;DHT22;43673;51.058;3.734;2023-05-10T12:53:29;19.60;99.90
57843;DHT22;43673;51.058;3.734;2023-05-10T12:55:55;19.20;99.90
57843;DHT22;43673;51.058;3.734;2023-05-10T12:58:20;19.20;99.90
57843;DHT22;43673;51.058;3.734;2023-05-10T13:00:46;19.10;99.90
57843;DHT22;43673;51.058;3.734;2023-05-10T13:03:12;19.00;99.90
57843;DHT22;43673;51.058;3.734;2023-05-10T13:05:38;19.00;99.90
57843;DHT22;43673;51.058;3.734;2023-05-10T13:08:04;19.00;99.90
57843;DHT22;43673;51.058;3.734;2023-05-10T13:10:30;18.90;99.90
57843;DHT22;43673;51.058;3.734;2023-05-10T13:12:57;18.70;99.90
57843;DHT22;43673;51.058;3.734;2023-05-10T13:15:23;18.80;99.90
57843;DHT22;43673;51.058;3.734;2023-05-10T13:17:49;18.60;99.90
57843;DHT22;43673;51.058;3.734;2023-05-10T13:20:15;18.50;99.90
57843;DHT22;43673;51.058;3.734;2023-05-10T13:22:43;18.40;99.90
57843;DHT22;43673;51.058;3.734;2023-05-10T13:25:15;18.30;99.90
57843;DHT22;43673;51.058;3.734;2023-05-10T13:27:44;18.30;99.90
57843;DHT22;43673;51.058;3.734;2023-05-10T13:30:16;18.30;99.90
57843;DHT22;43673;51.058;3.734;2023-05-10T13:32:45;18.20;99.90
57843;DHT22;43673;51.058;3.734;2023-05-10T13:35:14;18.00;99.90
57843;DHT22;43673;51.058;3.734;2023-05-10T13:37:41;18.10;99.90
57843;DHT22;43673;51.058;3.734;2023-05-10T13:40:07;18.00;99.90
57843;DHT22;43673;51.058;3.734;2023-05-10T13:42:40;17.90;99.90
57843;DHT22;43673;51.058;3.734;2023-05-10T13:45:10;17.90;99.90
57843;DHT22;43673;51.058;3.734;2023-05-10T13:47:49;17.90;99.90
57843;DHT22;43673;51.058;3.734;2023-05-10T13:50:24;18.00;99.90
57843;DHT22;43673;51.058;3.734;2023-05-10T13:53:17;17.60;99.90
57843;DHT22;43673;51.058;3.734;2023-05-10T13:55:58;17.80;99.90
57843;DHT22;43673;51.058;3.734;2023-05-10T13:58:27;17.80;99.90
57843;DHT22;43673;51.058;3.734;2023-05-10T14:00:53;17.80;99.90
57843;DHT22;43673;51.058;3.734;2023-05-10T14:03:18;17.70;99.90
57843;DHT22;43673;51.058;3.734;2023-05-10T14:08:35;17.60;99.90
57843;DHT22;43673;51.058;3.734;2023-05-10T14:11:01;17.60;99.90
57843;DHT22;43673;51.058;3.734;2023-05-10T14:13:27;17.50;99.90
57843;DHT22;43673;51.058;3.734;2023-05-10T14:15:53;17.50;99.90
57843;DHT22;43673;51.058;3.734;2023-05-10T14:18:20;17.50;99.90
57843;DHT22;43673;51.058;3.734;2023-05-10T14:20:45;17.50;99.90
57843;DHT22;43673;51.058;3.734;2023-05-10T14:23:11;17.50;99.90
57843;DHT22;43673;51.058;3.734;2023-05-10T14:25:39;17.60;99.90
57843;DHT22;43673;51.058;3.734;2023-05-10T14:28:05;17.60;99.90
57843;DHT22;43673;51.058;3.734;2023-05-10T14:30:31;17.70;99.90
57843;DHT22;43673;51.058;3.734;2023-05-10T14:32:58;17.70;99.90
57843;DHT22;43673;51.058;3.734;2023-05-10T14:35:24;17.80;99.90
57843;DHT22;43673;51.058;3.734;2023-05-10T14:37:49;17.90;99.90
57843;DHT22;43673;51.058;3.734;2023-05-10T14:40:15;17.90;99.90
57843;DHT22;43673;51.058;3.734;2023-05-10T14:42:42;18.00;99.90
57843;DHT22;43673;51.058;3.734;2023-05-10T14:45:09;18.00;99.90
57843;DHT22;43673;51.058;3.734;2023-05-10T14:47:35;18.10;99.90
57843;DHT22;43673;51.058;3.734;2023-05-10T14:50:00;18.10;99.90
57843;DHT22;43673;51.058;3.734;2023-05-10T14:52:26;18.10;99.90
57843;DHT22;43673;51.058;3.734;2023-05-10T14:54:52;18.20;99.90
57843;DHT22;43673;51.058;3.734;2023-05-10T14:57:17;18.20;99.90
57843;DHT22;43673;51.058;3.734;2023-05-10T14:59:43;18.20;99.90
57843;DHT22;43673;51.058;3.734;2023-05-10T15:02:09;18.30;99.90
57843;DHT22;43673;51.058;3.734;2023-05-10T15:04:35;18.30;99.90
57843;DHT22;43673;51.058;3.734;2023-05-10T15:07:01;18.40;99.90
57843;DHT22;43673;51.058;3.734;2023-05-10T15:09:27;18.40;99.90
57843;DHT22;43673;51.058;3.734;2023-05-10T15:11:53;18.50;99.90
57843;DHT22;43673;51.058;3.734;2023-05-10T15:14:19;18.60;99.90
57843;DHT22;43673;51.058;3.734;2023-05-10T15:16:45;18.70;99.90
57843;DHT22;43673;51.058;3.734;2023-05-10T15:19:10;18.80;99.90
57843;DHT22;43673;51.058;3.734;2023-05-10T15:21:36;18.80;99.90
57843;DHT22;43673;51.058;3.734;2023-05-10T15:24:07;18.80;99.90
57843;DHT22;43673;51.058;3.734;2023-05-10T15:26:33;18.80;99.90
57843;DHT22;43673;51.058;3.734;2023-05-10T15:28:59;18.80;99.90
57843;DHT22;43673;51.058;3.734;2023-05-10T15:31:25;18.70;99.90
57843;DHT22;43673;51.058;3.734;2023-05-10T15:33:50;18.70;99.90
57843;DHT22;43673;51.058;3.734;2023-05-10T15:36:16;18.80;99.90
57843;DHT22;43673;51.058;3.734;2023-05-10T15:38:43;18.70;99.90
57843;DHT22;43673;51.058;3.734;2023-05-10T15:41:09;18.70;99.90
57843;DHT22;43673;51.058;3.734;2023-05-10T15:43:35;18.80;99.90
57843;DHT22;43673;51.058;3.734;2023-05-10T15:46:01;18.70;99.90
57843;DHT22;43673;51.058;3.734;2023-05-10T15:48:27;18.80;99.90
57843;DHT22;43673;51.058;3.734;2023-05-10T15:50:52;18.80;99.90
57843;DHT22;43673;51.058;3.734;2023-05-10T15:53:18;18.90;99.90
57843;DHT22;43673;51.058;3.734;2023-05-10T15:55:44;19.00;99.90
57843;DHT22;43673;51.058;3.734;2023-05-10T15:58:10;19.00;99.90
57843;DHT22;43673;51.058;3.734;2023-05-10T16:00:35;19.10;99.90
57843;DHT22;43673;51.058;3.734;2023-05-10T16:03:01;19.20;99.90
57843;DHT22;43673;51.058;3.734;2023-05-10T16:05:27;19.30;99.90
57843;DHT22;43673;51.058;3.734;2023-05-10T16:07:56;19.40;99.90
57843;DHT22;43673;51.058;3.734;2023-05-10T16:10:25;19.40;99.90
57843;DHT22;43673;51.058;3.734;2023-05-10T16:12:51;19.60;99.90
57843;DHT22;43673;51.058;3.734;2023-05-10T16:15:17;19.80;99.90
57843;DHT22;43673;51.058;3.734;2023-05-10T16:17:43;20.00;99.90
57843;DHT22;43673;51.058;3.734;2023-05-10T16:20:08;20.10;99.90
57843;DHT22;43673;51.058;3.734;2023-05-10T16:22:34;20.20;99.90
57843;DHT22;43673;51.058;3.734;2023-05-10T16:25:00;20.40;99.90
57843;DHT22;43673;51.058;3.734;2023-05-10T16:27:26;20.60;99.90
57843;DHT22;43673;51.058;3.734;2023-05-10T16:29:54;20.50;99.90
57843;DHT22;43673;51.058;3.734;2023-05-10T16:32:20;20.50;99.90
57843;DHT22;43673;51.058;3.734;2023-05-10T16:34:46;20.60;99.90
57843;DHT22;43673;51.058;3.734;2023-05-10T16:37:11;20.50;99.90
57843;DHT22;43673;51.058;3.734;2023-05-10T16:39:37;20.40;99.90
57843;DHT22;43673;51.058;3.734;2023-05-10T16:42:03;20.40;99.90
57843;DHT22;43673;51.058;3.734;2023-05-10T16:44:29;20.40;99.90